sensor_id;sensor_type;location;lat;lon;timestamp;P1;durP1;ratioP1;P2;durP2;ratioP2
53207;SDS011;39093;52.788;6.940;2024-03-17T00:01:04;16.55;;;7.75;;
53207;SDS011;39093;52.788;6.940;2024-03-17T00:03:30;26.83;;;8.63;;
53207;SDS011;39093;52.788;6.940;2024-03-17T00:05:57;18.95;;;7.38;;
53207;SDS011;39093;52.788;6.940;2024-03-17T00:08:26;15.88;;;7.07;;
53207;SDS011;39093;52.788;6.940;2024-03-17T00:10:53;20.05;;;8.45;;
53207;SDS011;39093;52.788;6.940;2024-03-17T00:13:22;23.13;;;7.60;;
53207;SDS011;39093;52.788;6.940;2024-03-17T00:15:49;19.83;;;8.10;;
53207;SDS011;39093;52.788;6.940;2024-03-17T00:18:16;21.98;;;7.95;;
53207;SDS011;39093;52.788;6.940;2024-03-17T00:20:42;22.42;;;8.32;;
53207;SDS011;39093;52.788;6.940;2024-03-17T00:23:09;22.25;;;7.68;;
53207;SDS011;39093;52.788;6.940;2024-03-17T00:25:37;21.20;;;8.70;;
53207;SDS011;39093;52.788;6.940;2024-03-17T00:28:04;18.08;;;8.15;;
53207;SDS011;39093;52.788;6.940;2024-03-17T00:30:30;16.90;;;8.70;;
53207;SDS011;39093;52.788;6.940;2024-03-17T00:32:56;19.23;;;7.80;;
53207;SDS011;39093;52.788;6.940;2024-03-17T00:35:25;21.65;;;9.15;;
53207;SDS011;39093;52.788;6.940;2024-03-17T00:37:52;20.52;;;8.60;;
53207;SDS011;39093;52.788;6.940;2024-03-17T00:40:19;22.27;;;8.70;;
53207;SDS011;39093;52.788;6.940;2024-03-17T00:42:45;19.67;;;8.73;;
53207;SDS011;39093;52.788;6.940;2024-03-17T00:45:11;19.10;;;7.80;;
53207;SDS011;39093;52.788;6.940;2024-03-17T00:47:37;19.15;;;7.65;;
53207;SDS011;39093;52.788;6.940;2024-03-17T00:50:04;20.40;;;8.57;;
53207;SDS011;39093;52.788;6.940;2024-03-17T00:52:32;19.70;;;9.45;;
53207;SDS011;39093;52.788;6.940;2024-03-17T00:54:59;21.73;;;8.32;;
53207;SDS011;39093;52.788;6.940;2024-03-17T00:57:25;15.98;;;7.45;;
53207;SDS011;39093;52.788;6.940;2024-03-17T00:59:51;20.85;;;8.30;;
53207;SDS011;39093;52.788;6.940;2024-03-17T01:02:18;18.00;;;8.43;;
53207;SDS011;39093;52.788;6.940;2024-03-17T01:04:44;21.08;;;9.02;;
53207;SDS011;39093;52.788;6.940;2024-03-17T01:07:10;19.65;;;7.57;;
53207;SDS011;39093;52.788;6.940;2024-03-17T01:09:37;13.70;;;7.32;;
53207;SDS011;39093;52.788;6.940;2024-03-17T01:12:04;19.75;;;7.57;;
53207;SDS011;39093;52.788;6.940;2024-03-17T01:14:31;22.77;;;8.57;;
53207;SDS011;39093;52.788;6.940;2024-03-17T01:16:58;20.70;;;8.02;;
53207;SDS011;39093;52.788;6.940;2024-03-17T01:19:25;23.65;;;8.45;;
53207;SDS011;39093;52.788;6.940;2024-03-17T01:21:52;24.50;;;7.40;;
53207;SDS011;39093;52.788;6.940;2024-03-17T01:24:18;17.77;;;6.72;;
53207;SDS011;39093;52.788;6.940;2024-03-17T01:26:44;16.73;;;7.05;;
53207;SDS011;39093;52.788;6.940;2024-03-17T01:29:10;17.75;;;6.70;;
53207;SDS011;39093;52.788;6.940;2024-03-17T01:31:36;17.95;;;6.65;;
53207;SDS011;39093;52.788;6.940;2024-03-17T01:34:02;21.17;;;7.60;;
53207;SDS011;39093;52.788;6.940;2024-03-17T01:36:28;25.80;;;9.57;;
53207;SDS011;39093;52.788;6.940;2024-03-17T01:38:54;22.33;;;9.60;;
53207;SDS011;39093;52.788;6.940;2024-03-17T01:41:21;31.25;;;10.15;;
53207;SDS011;39093;52.788;6.940;2024-03-17T01:43:47;32.55;;;12.18;;
53207;SDS011;39093;52.788;6.940;2024-03-17T01:46:13;36.70;;;12.93;;
53207;SDS011;39093;52.788;6.940;2024-03-17T01:48:42;30.00;;;12.55;;
53207;SDS011;39093;52.788;6.940;2024-03-17T01:51:09;39.00;;;12.68;;
53207;SDS011;39093;52.788;6.940;2024-03-17T01:53:37;42.88;;;12.73;;
53207;SDS011;39093;52.788;6.940;2024-03-17T01:56:04;29.80;;;10.07;;
53207;SDS011;39093;52.788;6.940;2024-03-17T01:58:33;23.90;;;8.82;;
53207;SDS011;39093;52.788;6.940;2024-03-17T02:01:00;32.88;;;10.50;;
53207;SDS011;39093;52.788;6.940;2024-03-17T02:03:26;30.55;;;8.98;;
53207;SDS011;39093;52.788;6.940;2024-03-17T02:05:52;21.85;;;9.68;;
53207;SDS011;39093;52.788;6.940;2024-03-17T02:08:18;23.35;;;9.00;;
53207;SDS011;39093;52.788;6.940;2024-03-17T02:10:45;20.85;;;8.15;;
53207;SDS011;39093;52.788;6.940;2024-03-17T02:13:17;22.00;;;7.00;;
53207;SDS011;39093;52.788;6.940;2024-03-17T02:15:43;22.25;;;7.38;;
53207;SDS011;39093;52.788;6.940;2024-03-17T02:18:09;18.77;;;6.35;;
53207;SDS011;39093;52.788;6.940;2024-03-17T02:20:34;19.48;;;6.10;;
53207;SDS011;39093;52.788;6.940;2024-03-17T02:23:19;23.20;;;6.13;;
53207;SDS011;39093;52.788;6.940;2024-03-17T02:25:45;17.52;;;6.50;;
53207;SDS011;39093;52.788;6.940;2024-03-17T02:28:12;19.45;;;6.35;;
53207;SDS011;39093;52.788;6.940;2024-03-17T02:30:38;19.75;;;6.82;;
53207;SDS011;39093;52.788;6.940;2024-03-17T02:33:04;16.90;;;6.43;;
53207;SDS011;39093;52.788;6.940;2024-03-17T02:35:30;18.48;;;6.80;;
53207;SDS011;39093;52.788;6.940;2024-03-17T02:37:56;31.75;;;8.90;;
53207;SDS011;39093;52.788;6.940;2024-03-17T02:40:22;23.83;;;9.20;;
53207;SDS011;39093;52.788;6.940;2024-03-17T02:42:48;26.42;;;10.35;;
53207;SDS011;39093;52.788;6.940;2024-03-17T02:45:14;24.77;;;10.10;;
53207;SDS011;39093;52.788;6.940;2024-03-17T02:47:40;32.08;;;12.25;;
53207;SDS011;39093;52.788;6.940;2024-03-17T02:50:07;32.53;;;9.52;;
53207;SDS011;39093;52.788;6.940;2024-03-17T02:52:34;30.20;;;10.82;;
53207;SDS011;39093;52.788;6.940;2024-03-17T02:55:00;28.63;;;10.77;;
53207;SDS011;39093;52.788;6.940;2024-03-17T02:57:26;28.85;;;10.40;;
53207;SDS011;39093;52.788;6.940;2024-03-17T02:59:57;25.73;;;9.60;;
53207;SDS011;39093;52.788;6.940;2024-03-17T03:02:23;23.63;;;8.63;;
53207;SDS011;39093;52.788;6.940;2024-03-17T03:04:49;19.20;;;8.65;;
53207;SDS011;39093;52.788;6.940;2024-03-17T03:07:16;20.33;;;8.35;;
53207;SDS011;39093;52.788;6.940;2024-03-17T03:09:42;19.25;;;7.10;;
53207;SDS011;39093;52.788;6.940;2024-03-17T03:12:08;15.18;;;6.50;;
53207;SDS011;39093;52.788;6.940;2024-03-17T03:14:34;22.17;;;7.53;;
53207;SDS011;39093;52.788;6.940;2024-03-17T03:17:00;20.70;;;7.28;;
53207;SDS011;39093;52.788;6.940;2024-03-17T03:19:26;15.13;;;5.95;;
53207;SDS011;39093;52.788;6.940;2024-03-17T03:21:52;16.88;;;6.72;;
53207;SDS011;39093;52.788;6.940;2024-03-17T03:24:19;17.55;;;7.32;;
53207;SDS011;39093;52.788;6.940;2024-03-17T03:26:44;13.18;;;6.72;;
53207;SDS011;39093;52.788;6.940;2024-03-17T03:29:10;17.95;;;6.50;;
53207;SDS011;39093;52.788;6.940;2024-03-17T03:31:36;18.20;;;6.22;;
53207;SDS011;39093;52.788;6.940;2024-03-17T03:34:06;17.13;;;6.00;;
53207;SDS011;39093;52.788;6.940;2024-03-17T03:36:34;16.35;;;6.40;;
53207;SDS011;39093;52.788;6.940;2024-03-17T03:39:02;11.63;;;6.20;;
53207;SDS011;39093;52.788;6.940;2024-03-17T03:41:30;14.98;;;6.53;;
53207;SDS011;39093;52.788;6.940;2024-03-17T03:43:58;15.27;;;6.20;;
53207;SDS011;39093;52.788;6.940;2024-03-17T03:46:24;11.90;;;5.80;;
53207;SDS011;39093;52.788;6.940;2024-03-17T03:48:51;18.35;;;6.50;;
53207;SDS011;39093;52.788;6.940;2024-03-17T03:51:17;15.85;;;5.40;;
53207;SDS011;39093;52.788;6.940;2024-03-17T03:53:43;12.75;;;5.57;;
53207;SDS011;39093;52.788;6.940;2024-03-17T03:56:09;14.68;;;5.38;;
53207;SDS011;39093;52.788;6.940;2024-03-17T03:58:36;11.13;;;4.93;;
53207;SDS011;39093;52.788;6.940;2024-03-17T04:01:09;12.05;;;5.55;;
53207;SDS011;39093;52.788;6.940;2024-03-17T04:03:36;11.20;;;5.18;;
53207;SDS011;39093;52.788;6.940;2024-03-17T04:06:07;12.90;;;5.30;;
53207;SDS011;39093;52.788;6.940;2024-03-17T04:08:35;16.02;;;5.05;;
53207;SDS011;39093;52.788;6.940;2024-03-17T04:11:01;12.23;;;4.57;;
53207;SDS011;39093;52.788;6.940;2024-03-17T04:13:28;11.43;;;5.57;;
53207;SDS011;39093;52.788;6.940;2024-03-17T04:15:59;23.35;;;5.78;;
53207;SDS011;39093;52.788;6.940;2024-03-17T04:18:25;12.75;;;5.65;;
53207;SDS011;39093;52.788;6.940;2024-03-17T04:20:55;12.63;;;5.20;;
53207;SDS011;39093;52.788;6.940;2024-03-17T04:23:22;17.17;;;5.03;;
53207;SDS011;39093;52.788;6.940;2024-03-17T04:25:52;18.67;;;5.50;;
53207;SDS011;39093;52.788;6.940;2024-03-17T04:28:19;16.95;;;6.25;;
53207;SDS011;39093;52.788;6.940;2024-03-17T04:30:45;12.63;;;5.65;;
53207;SDS011;39093;52.788;6.940;2024-03-17T04:33:14;13.27;;;5.13;;
53207;SDS011;39093;52.788;6.940;2024-03-17T04:35:42;15.13;;;5.28;;
53207;SDS011;39093;52.788;6.940;2024-03-17T04:38:08;10.82;;;5.40;;
53207;SDS011;39093;52.788;6.940;2024-03-17T04:40:40;25.23;;;7.95;;
53207;SDS011;39093;52.788;6.940;2024-03-17T04:43:07;20.03;;;5.73;;
53207;SDS011;39093;52.788;6.940;2024-03-17T04:45:34;17.02;;;5.78;;
53207;SDS011;39093;52.788;6.940;2024-03-17T04:48:00;13.95;;;5.78;;
53207;SDS011;39093;52.788;6.940;2024-03-17T04:50:25;11.55;;;4.90;;
53207;SDS011;39093;52.788;6.940;2024-03-17T04:52:57;11.30;;;5.45;;
53207;SDS011;39093;52.788;6.940;2024-03-17T04:55:25;16.65;;;5.38;;
53207;SDS011;39093;52.788;6.940;2024-03-17T04:57:52;11.38;;;5.38;;
53207;SDS011;39093;52.788;6.940;2024-03-17T05:00:17;14.82;;;5.45;;
53207;SDS011;39093;52.788;6.940;2024-03-17T05:02:44;13.80;;;5.60;;
53207;SDS011;39093;52.788;6.940;2024-03-17T05:05:10;14.90;;;5.50;;
53207;SDS011;39093;52.788;6.940;2024-03-17T05:07:36;15.23;;;5.43;;
53207;SDS011;39093;52.788;6.940;2024-03-17T05:10:03;13.90;;;5.35;;
53207;SDS011;39093;52.788;6.940;2024-03-17T05:12:29;11.43;;;5.63;;
53207;SDS011;39093;52.788;6.940;2024-03-17T05:14:55;16.73;;;5.38;;
53207;SDS011;39093;52.788;6.940;2024-03-17T05:17:21;14.48;;;5.05;;
53207;SDS011;39093;52.788;6.940;2024-03-17T05:19:48;16.60;;;5.90;;
53207;SDS011;39093;52.788;6.940;2024-03-17T05:22:13;15.55;;;5.70;;
53207;SDS011;39093;52.788;6.940;2024-03-17T05:24:39;13.38;;;5.60;;
53207;SDS011;39093;52.788;6.940;2024-03-17T05:27:05;17.27;;;5.45;;
53207;SDS011;39093;52.788;6.940;2024-03-17T05:29:31;18.25;;;5.43;;
53207;SDS011;39093;52.788;6.940;2024-03-17T05:31:58;14.52;;;5.13;;
53207;SDS011;39093;52.788;6.940;2024-03-17T05:34:24;12.10;;;5.72;;
53207;SDS011;39093;52.788;6.940;2024-03-17T05:36:50;14.82;;;5.28;;
53207;SDS011;39093;52.788;6.940;2024-03-17T05:39:16;12.40;;;5.45;;
53207;SDS011;39093;52.788;6.940;2024-03-17T05:41:42;19.92;;;5.80;;
53207;SDS011;39093;52.788;6.940;2024-03-17T05:44:09;14.05;;;6.43;;
53207;SDS011;39093;52.788;6.940;2024-03-17T05:46:35;17.30;;;5.30;;
53207;SDS011;39093;52.788;6.940;2024-03-17T05:49:01;15.25;;;5.57;;
53207;SDS011;39093;52.788;6.940;2024-03-17T05:51:28;13.52;;;5.30;;
53207;SDS011;39093;52.788;6.940;2024-03-17T05:53:54;14.32;;;5.40;;
53207;SDS011;39093;52.788;6.940;2024-03-17T05:56:23;8.93;;;4.15;;
53207;SDS011;39093;52.788;6.940;2024-03-17T05:58:49;23.38;;;5.50;;
53207;SDS011;39093;52.788;6.940;2024-03-17T06:01:15;11.25;;;4.75;;
53207;SDS011;39093;52.788;6.940;2024-03-17T06:03:41;10.93;;;5.22;;
53207;SDS011;39093;52.788;6.940;2024-03-17T06:06:08;14.50;;;5.90;;
53207;SDS011;39093;52.788;6.940;2024-03-17T06:08:37;21.65;;;5.70;;
53207;SDS011;39093;52.788;6.940;2024-03-17T06:11:07;13.35;;;5.65;;
53207;SDS011;39093;52.788;6.940;2024-03-17T06:13:33;14.32;;;5.30;;
53207;SDS011;39093;52.788;6.940;2024-03-17T06:16:01;11.45;;;5.13;;
53207;SDS011;39093;52.788;6.940;2024-03-17T06:18:28;11.90;;;4.75;;
53207;SDS011;39093;52.788;6.940;2024-03-17T06:20:54;13.27;;;4.43;;
53207;SDS011;39093;52.788;6.940;2024-03-17T06:23:23;19.15;;;5.53;;
53207;SDS011;39093;52.788;6.940;2024-03-17T06:25:50;17.00;;;5.20;;
53207;SDS011;39093;52.788;6.940;2024-03-17T06:28:16;10.85;;;5.05;;
53207;SDS011;39093;52.788;6.940;2024-03-17T06:30:46;17.42;;;5.47;;
53207;SDS011;39093;52.788;6.940;2024-03-17T06:33:20;12.35;;;4.80;;
53207;SDS011;39093;52.788;6.940;2024-03-17T06:35:47;13.05;;;4.75;;
53207;SDS011;39093;52.788;6.940;2024-03-17T06:38:13;9.75;;;4.70;;
53207;SDS011;39093;52.788;6.940;2024-03-17T06:40:40;10.55;;;4.63;;
53207;SDS011;39093;52.788;6.940;2024-03-17T06:43:07;12.07;;;4.75;;
53207;SDS011;39093;52.788;6.940;2024-03-17T06:45:33;17.80;;;5.80;;
53207;SDS011;39093;52.788;6.940;2024-03-17T06:47:59;17.67;;;8.48;;
53207;SDS011;39093;52.788;6.940;2024-03-17T06:50:25;11.30;;;5.22;;
53207;SDS011;39093;52.788;6.940;2024-03-17T06:52:51;11.52;;;5.00;;
53207;SDS011;39093;52.788;6.940;2024-03-17T06:55:18;19.38;;;5.38;;
53207;SDS011;39093;52.788;6.940;2024-03-17T06:57:46;16.98;;;4.47;;
53207;SDS011;39093;52.788;6.940;2024-03-17T07:00:12;14.38;;;4.80;;
53207;SDS011;39093;52.788;6.940;2024-03-17T07:02:48;17.85;;;4.80;;
53207;SDS011;39093;52.788;6.940;2024-03-17T07:05:15;14.60;;;5.78;;
53207;SDS011;39093;52.788;6.940;2024-03-17T07:07:41;16.58;;;5.25;;
53207;SDS011;39093;52.788;6.940;2024-03-17T07:10:08;18.17;;;4.18;;
53207;SDS011;39093;52.788;6.940;2024-03-17T07:12:36;15.90;;;4.38;;
53207;SDS011;39093;52.788;6.940;2024-03-17T07:15:06;19.58;;;5.03;;
53207;SDS011;39093;52.788;6.940;2024-03-17T07:17:32;9.52;;;3.95;;
53207;SDS011;39093;52.788;6.940;2024-03-17T07:19:58;14.20;;;4.80;;
53207;SDS011;39093;52.788;6.940;2024-03-17T07:22:25;13.10;;;3.80;;
53207;SDS011;39093;52.788;6.940;2024-03-17T07:24:54;19.80;;;4.85;;
53207;SDS011;39093;52.788;6.940;2024-03-17T07:27:23;14.32;;;4.38;;
53207;SDS011;39093;52.788;6.940;2024-03-17T07:29:49;15.20;;;4.30;;
53207;SDS011;39093;52.788;6.940;2024-03-17T07:32:15;15.45;;;5.47;;
53207;SDS011;39093;52.788;6.940;2024-03-17T07:34:41;12.00;;;4.20;;
53207;SDS011;39093;52.788;6.940;2024-03-17T07:37:07;12.85;;;4.50;;
53207;SDS011;39093;52.788;6.940;2024-03-17T07:39:33;14.98;;;4.32;;
53207;SDS011;39093;52.788;6.940;2024-03-17T07:41:59;13.45;;;4.85;;
53207;SDS011;39093;52.788;6.940;2024-03-17T07:44:27;14.50;;;4.18;;
53207;SDS011;39093;52.788;6.940;2024-03-17T07:47:02;13.30;;;4.00;;
53207;SDS011;39093;52.788;6.940;2024-03-17T07:49:29;12.15;;;4.70;;
53207;SDS011;39093;52.788;6.940;2024-03-17T07:51:56;12.25;;;4.78;;
53207;SDS011;39093;52.788;6.940;2024-03-17T07:54:26;15.52;;;3.88;;
53207;SDS011;39093;52.788;6.940;2024-03-17T07:56:52;13.30;;;4.35;;
53207;SDS011;39093;52.788;6.940;2024-03-17T07:59:18;10.02;;;3.90;;
53207;SDS011;39093;52.788;6.940;2024-03-17T08:01:44;13.75;;;4.03;;
53207;SDS011;39093;52.788;6.940;2024-03-17T08:04:11;11.77;;;4.07;;
53207;SDS011;39093;52.788;6.940;2024-03-17T08:06:40;17.63;;;4.40;;
53207;SDS011;39093;52.788;6.940;2024-03-17T08:09:07;11.32;;;4.03;;
53207;SDS011;39093;52.788;6.940;2024-03-17T08:11:34;12.55;;;3.80;;
53207;SDS011;39093;52.788;6.940;2024-03-17T08:14:00;14.88;;;5.15;;
53207;SDS011;39093;52.788;6.940;2024-03-17T08:16:27;15.05;;;4.13;;
53207;SDS011;39093;52.788;6.940;2024-03-17T08:18:54;14.10;;;3.70;;
53207;SDS011;39093;52.788;6.940;2024-03-17T08:21:21;11.70;;;4.03;;
53207;SDS011;39093;52.788;6.940;2024-03-17T08:23:47;10.25;;;4.40;;
53207;SDS011;39093;52.788;6.940;2024-03-17T08:26:13;8.60;;;3.78;;
53207;SDS011;39093;52.788;6.940;2024-03-17T08:28:39;10.15;;;3.53;;
53207;SDS011;39093;52.788;6.940;2024-03-17T08:31:05;10.88;;;3.90;;
53207;SDS011;39093;52.788;6.940;2024-03-17T08:33:31;12.48;;;5.07;;
53207;SDS011;39093;52.788;6.940;2024-03-17T08:36:02;16.65;;;7.50;;
53207;SDS011;39093;52.788;6.940;2024-03-17T08:38:30;14.80;;;4.95;;
53207;SDS011;39093;52.788;6.940;2024-03-17T08:41:07;10.05;;;4.43;;
53207;SDS011;39093;52.788;6.940;2024-03-17T08:43:34;15.48;;;5.22;;
53207;SDS011;39093;52.788;6.940;2024-03-17T08:46:06;10.13;;;4.53;;
53207;SDS011;39093;52.788;6.940;2024-03-17T08:48:34;14.43;;;5.72;;
53207;SDS011;39093;52.788;6.940;2024-03-17T08:51:04;11.77;;;4.75;;
53207;SDS011;39093;52.788;6.940;2024-03-17T08:53:31;13.55;;;5.00;;
53207;SDS011;39093;52.788;6.940;2024-03-17T08:55:58;11.15;;;4.55;;
53207;SDS011;39093;52.788;6.940;2024-03-17T08:58:24;9.93;;;4.60;;
53207;SDS011;39093;52.788;6.940;2024-03-17T09:00:51;10.20;;;4.80;;
53207;SDS011;39093;52.788;6.940;2024-03-17T09:03:17;18.23;;;5.05;;
53207;SDS011;39093;52.788;6.940;2024-03-17T09:05:44;12.95;;;4.32;;
53207;SDS011;39093;52.788;6.940;2024-03-17T09:08:15;8.68;;;5.03;;
53207;SDS011;39093;52.788;6.940;2024-03-17T09:10:45;11.93;;;5.68;;
53207;SDS011;39093;52.788;6.940;2024-03-17T09:13:16;14.07;;;5.15;;
53207;SDS011;39093;52.788;6.940;2024-03-17T09:15:56;10.30;;;5.05;;
53207;SDS011;39093;52.788;6.940;2024-03-17T09:18:28;13.00;;;5.95;;
53207;SDS011;39093;52.788;6.940;2024-03-17T09:23:22;15.85;;;6.00;;
53207;SDS011;39093;52.788;6.940;2024-03-17T09:25:56;12.23;;;5.57;;
53207;SDS011;39093;52.788;6.940;2024-03-17T09:28:26;13.82;;;6.28;;
53207;SDS011;39093;52.788;6.940;2024-03-17T09:30:53;15.00;;;5.68;;
53207;SDS011;39093;52.788;6.940;2024-03-17T09:33:20;10.88;;;5.40;;
53207;SDS011;39093;52.788;6.940;2024-03-17T09:35:57;12.38;;;6.57;;
53207;SDS011;39093;52.788;6.940;2024-03-17T09:38:25;16.35;;;6.53;;
53207;SDS011;39093;52.788;6.940;2024-03-17T09:40:52;15.48;;;6.32;;
53207;SDS011;39093;52.788;6.940;2024-03-17T09:43:20;18.05;;;7.25;;
53207;SDS011;39093;52.788;6.940;2024-03-17T09:45:47;12.82;;;7.15;;
53207;SDS011;39093;52.788;6.940;2024-03-17T09:48:14;11.45;;;6.50;;
53207;SDS011;39093;52.788;6.940;2024-03-17T09:50:59;15.02;;;7.13;;
53207;SDS011;39093;52.788;6.940;2024-03-17T09:53:29;12.85;;;7.38;;
53207;SDS011;39093;52.788;6.940;2024-03-17T09:55:57;16.95;;;7.53;;
53207;SDS011;39093;52.788;6.940;2024-03-17T09:58:23;15.90;;;7.68;;
53207;SDS011;39093;52.788;6.940;2024-03-17T10:00:49;18.20;;;8.25;;
53207;SDS011;39093;52.788;6.940;2024-03-17T10:06:29;12.43;;;7.57;;
53207;SDS011;39093;52.788;6.940;2024-03-17T10:08:57;15.93;;;8.18;;
53207;SDS011;39093;52.788;6.940;2024-03-17T10:11:25;15.80;;;7.72;;
53207;SDS011;39093;52.788;6.940;2024-03-17T10:14:02;11.15;;;7.13;;
53207;SDS011;39093;52.788;6.940;2024-03-17T10:16:30;15.10;;;7.75;;
53207;SDS011;39093;52.788;6.940;2024-03-17T10:19:07;14.88;;;6.90;;
53207;SDS011;39093;52.788;6.940;2024-03-17T10:21:35;10.95;;;7.10;;
53207;SDS011;39093;52.788;6.940;2024-03-17T10:24:12;11.80;;;6.72;;
53207;SDS011;39093;52.788;6.940;2024-03-17T10:26:43;13.23;;;7.35;;
53207;SDS011;39093;52.788;6.940;2024-03-17T10:29:22;16.98;;;7.20;;
53207;SDS011;39093;52.788;6.940;2024-03-17T10:32:13;11.65;;;7.70;;
53207;SDS011;39093;52.788;6.940;2024-03-17T10:34:42;13.05;;;6.47;;
53207;SDS011;39093;52.788;6.940;2024-03-17T10:37:11;13.35;;;7.20;;
53207;SDS011;39093;52.788;6.940;2024-03-17T10:39:40;12.18;;;6.80;;
53207;SDS011;39093;52.788;6.940;2024-03-17T10:42:08;11.77;;;7.18;;
53207;SDS011;39093;52.788;6.940;2024-03-17T10:44:36;14.75;;;7.38;;
53207;SDS011;39093;52.788;6.940;2024-03-17T10:47:21;13.68;;;7.35;;
53207;SDS011;39093;52.788;6.940;2024-03-17T10:49:52;10.95;;;7.05;;
53207;SDS011;39093;52.788;6.940;2024-03-17T10:54:52;11.43;;;6.38;;
53207;SDS011;39093;52.788;6.940;2024-03-17T10:57:24;11.57;;;6.90;;
53207;SDS011;39093;52.788;6.940;2024-03-17T10:59:53;13.32;;;6.90;;
53207;SDS011;39093;52.788;6.940;2024-03-17T11:04:52;14.32;;;7.05;;
53207;SDS011;39093;52.788;6.940;2024-03-17T11:07:29;11.20;;;6.47;;
53207;SDS011;39093;52.788;6.940;2024-03-17T11:10:02;8.50;;;5.90;;
53207;SDS011;39093;52.788;6.940;2024-03-17T11:17:48;9.30;;;6.05;;
53207;SDS011;39093;52.788;6.940;2024-03-17T11:20:23;11.23;;;7.43;;
53207;SDS011;39093;52.788;6.940;2024-03-17T11:22:55;10.20;;;6.95;;
53207;SDS011;39093;52.788;6.940;2024-03-17T11:27:51;7.85;;;6.40;;
53207;SDS011;39093;52.788;6.940;2024-03-17T11:46:50;10.10;;;6.72;;
53207;SDS011;39093;52.788;6.940;2024-03-17T11:49:28;9.18;;;6.38;;
53207;SDS011;39093;52.788;6.940;2024-03-17T11:51:57;7.45;;;6.28;;
53207;SDS011;39093;52.788;6.940;2024-03-17T11:54:28;8.57;;;5.95;;
53207;SDS011;39093;52.788;6.940;2024-03-17T11:57:00;9.32;;;6.03;;
53207;SDS011;39093;52.788;6.940;2024-03-17T11:59:26;8.43;;;6.07;;
53207;SDS011;39093;52.788;6.940;2024-03-17T12:01:53;6.68;;;5.18;;
53207;SDS011;39093;52.788;6.940;2024-03-17T12:04:20;7.55;;;5.75;;
53207;SDS011;39093;52.788;6.940;2024-03-17T12:06:51;8.20;;;5.85;;
53207;SDS011;39093;52.788;6.940;2024-03-17T12:09:19;10.68;;;6.43;;
53207;SDS011;39093;52.788;6.940;2024-03-17T12:11:47;7.68;;;5.80;;
53207;SDS011;39093;52.788;6.940;2024-03-17T12:14:23;10.15;;;6.40;;
53207;SDS011;39093;52.788;6.940;2024-03-17T12:16:51;8.23;;;6.65;;
53207;SDS011;39093;52.788;6.940;2024-03-17T12:19:17;10.73;;;6.88;;
53207;SDS011;39093;52.788;6.940;2024-03-17T12:21:44;10.88;;;6.63;;
53207;SDS011;39093;52.788;6.940;2024-03-17T12:24:18;8.65;;;5.88;;
53207;SDS011;39093;52.788;6.940;2024-03-17T12:26:45;10.18;;;6.35;;
53207;SDS011;39093;52.788;6.940;2024-03-17T12:31:55;12.63;;;6.15;;
53207;SDS011;39093;52.788;6.940;2024-03-17T12:34:24;8.30;;;5.38;;
53207;SDS011;39093;52.788;6.940;2024-03-17T12:36:52;10.10;;;5.95;;
53207;SDS011;39093;52.788;6.940;2024-03-17T12:39:23;7.60;;;5.05;;
53207;SDS011;39093;52.788;6.940;2024-03-17T12:44:49;9.15;;;5.50;;
53207;SDS011;39093;52.788;6.940;2024-03-17T12:47:17;10.80;;;4.88;;
53207;SDS011;39093;52.788;6.940;2024-03-17T12:50:09;8.70;;;5.47;;
53207;SDS011;39093;52.788;6.940;2024-03-17T12:52:36;5.22;;;4.72;;
53207;SDS011;39093;52.788;6.940;2024-03-17T12:55:03;8.90;;;4.80;;
53207;SDS011;39093;52.788;6.940;2024-03-17T12:57:52;8.68;;;4.93;;
53207;SDS011;39093;52.788;6.940;2024-03-17T13:00:46;13.25;;;5.03;;
53207;SDS011;39093;52.788;6.940;2024-03-17T13:03:35;5.07;;;4.55;;
53207;SDS011;39093;52.788;6.940;2024-03-17T13:06:05;9.18;;;4.90;;
53207;SDS011;39093;52.788;6.940;2024-03-17T13:08:34;8.65;;;4.65;;
53207;SDS011;39093;52.788;6.940;2024-03-17T13:11:01;7.90;;;4.60;;
53207;SDS011;39093;52.788;6.940;2024-03-17T13:13:29;7.97;;;4.95;;
53207;SDS011;39093;52.788;6.940;2024-03-17T13:15:55;8.70;;;5.22;;
53207;SDS011;39093;52.788;6.940;2024-03-17T13:18:21;7.00;;;5.03;;
53207;SDS011;39093;52.788;6.940;2024-03-17T13:20:48;10.85;;;4.97;;
53207;SDS011;39093;52.788;6.940;2024-03-17T13:23:19;6.85;;;4.93;;
53207;SDS011;39093;52.788;6.940;2024-03-17T13:25:47;7.80;;;5.03;;
53207;SDS011;39093;52.788;6.940;2024-03-17T13:28:13;6.65;;;5.30;;
53207;SDS011;39093;52.788;6.940;2024-03-17T13:30:40;7.93;;;5.15;;
53207;SDS011;39093;52.788;6.940;2024-03-17T13:33:07;7.70;;;5.10;;
53207;SDS011;39093;52.788;6.940;2024-03-17T13:35:37;6.75;;;5.45;;
53207;SDS011;39093;52.788;6.940;2024-03-17T13:38:08;8.23;;;6.13;;
53207;SDS011;39093;52.788;6.940;2024-03-17T13:40:39;7.28;;;5.00;;
53207;SDS011;39093;52.788;6.940;2024-03-17T13:43:06;7.43;;;5.78;;
53207;SDS011;39093;52.788;6.940;2024-03-17T13:45:37;5.55;;;4.95;;
53207;SDS011;39093;52.788;6.940;2024-03-17T13:48:05;8.88;;;5.57;;
53207;SDS011;39093;52.788;6.940;2024-03-17T13:50:36;7.55;;;5.30;;
53207;SDS011;39093;52.788;6.940;2024-03-17T13:53:03;7.07;;;5.47;;
53207;SDS011;39093;52.788;6.940;2024-03-17T13:55:29;6.05;;;5.38;;
53207;SDS011;39093;52.788;6.940;2024-03-17T13:57:56;9.30;;;6.65;;
53207;SDS011;39093;52.788;6.940;2024-03-17T14:00:24;8.40;;;5.60;;
53207;SDS011;39093;52.788;6.940;2024-03-17T14:02:52;8.60;;;5.40;;
53207;SDS011;39093;52.788;6.940;2024-03-17T14:05:19;6.20;;;5.28;;
53207;SDS011;39093;52.788;6.940;2024-03-17T14:07:46;9.30;;;6.35;;
53207;SDS011;39093;52.788;6.940;2024-03-17T14:10:14;10.82;;;6.68;;
53207;SDS011;39093;52.788;6.940;2024-03-17T14:12:41;10.57;;;6.35;;
53207;SDS011;39093;52.788;6.940;2024-03-17T14:15:08;7.25;;;5.60;;
53207;SDS011;39093;52.788;6.940;2024-03-17T14:17:38;9.90;;;6.22;;
53207;SDS011;39093;52.788;6.940;2024-03-17T14:20:05;8.05;;;6.28;;
53207;SDS011;39093;52.788;6.940;2024-03-17T14:22:38;8.65;;;6.30;;
53207;SDS011;39093;52.788;6.940;2024-03-17T14:25:09;8.50;;;5.82;;
53207;SDS011;39093;52.788;6.940;2024-03-17T14:27:37;9.20;;;6.55;;
53207;SDS011;39093;52.788;6.940;2024-03-17T14:30:04;9.68;;;6.40;;
53207;SDS011;39093;52.788;6.940;2024-03-17T14:32:31;9.07;;;5.65;;
53207;SDS011;39093;52.788;6.940;2024-03-17T14:34:57;9.02;;;6.85;;
53207;SDS011;39093;52.788;6.940;2024-03-17T14:37:23;8.48;;;5.72;;
53207;SDS011;39093;52.788;6.940;2024-03-17T14:39:51;11.00;;;6.40;;
53207;SDS011;39093;52.788;6.940;2024-03-17T14:42:18;6.47;;;5.78;;
53207;SDS011;39093;52.788;6.940;2024-03-17T14:44:45;9.48;;;6.22;;
53207;SDS011;39093;52.788;6.940;2024-03-17T14:47:13;9.60;;;6.38;;
53207;SDS011;39093;52.788;6.940;2024-03-17T14:49:42;9.38;;;6.60;;
53207;SDS011;39093;52.788;6.940;2024-03-17T14:52:08;8.85;;;6.10;;
53207;SDS011;39093;52.788;6.940;2024-03-17T14:54:34;9.02;;;7.05;;
53207;SDS011;39093;52.788;6.940;2024-03-17T14:57:00;11.68;;;7.57;;
53207;SDS011;39093;52.788;6.940;2024-03-17T14:59:27;10.30;;;7.25;;
53207;SDS011;39093;52.788;6.940;2024-03-17T15:01:53;10.32;;;7.43;;
53207;SDS011;39093;52.788;6.940;2024-03-17T15:04:19;8.80;;;7.90;;
53207;SDS011;39093;52.788;6.940;2024-03-17T15:06:45;13.35;;;8.70;;
53207;SDS011;39093;52.788;6.940;2024-03-17T15:09:11;8.65;;;6.80;;
53207;SDS011;39093;52.788;6.940;2024-03-17T15:11:44;8.85;;;7.28;;
53207;SDS011;39093;52.788;6.940;2024-03-17T15:14:12;8.32;;;6.85;;
53207;SDS011;39093;52.788;6.940;2024-03-17T15:16:38;11.95;;;7.10;;
53207;SDS011;39093;52.788;6.940;2024-03-17T15:19:07;8.68;;;6.72;;
53207;SDS011;39093;52.788;6.940;2024-03-17T15:21:33;11.18;;;7.47;;